createdAt,value
2018-11-12T00:00:33.562Z,16.27
2018-11-12T00:03:02.438Z,18.53
2018-11-12T00:05:30.878Z,19.37
2018-11-12T00:07:59.334Z,19.73
2018-11-12T00:10:27.825Z,19.60
2018-11-12T00:12:56.397Z,17.43
2018-11-12T00:15:24.829Z,19.33
2018-11-12T00:17:53.293Z,19.97
2018-11-12T00:20:21.888Z,19.43
2018-11-12T00:22:50.354Z,19.17
2018-11-12T00:25:18.809Z,17.63
2018-11-12T00:27:47.326Z,19.00
2018-11-12T00:30:19.691Z,20.83
2018-11-12T00:32:48.917Z,18.67
2018-11-12T00:35:17.415Z,16.73
2018-11-12T00:51:22.608Z,14.63
2018-11-12T00:53:51.054Z,17.83
2018-11-12T00:56:19.521Z,16.10
2018-11-12T00:58:48.093Z,15.27
2018-11-12T01:01:16.539Z,22.07
2018-11-12T01:03:45.007Z,18.43
2018-11-12T01:06:13.485Z,19.23
2018-11-12T01:08:42.093Z,18.60
2018-11-12T01:11:10.850Z,18.53
2018-11-12T01:13:39.313Z,17.37
2018-11-12T01:16:08.021Z,16.67
2018-11-12T01:18:36.443Z,17.03
2018-11-12T01:21:05.269Z,18.37
2018-11-12T01:23:33.728Z,17.83
2018-11-12T01:26:02.196Z,20.23
2018-11-12T01:28:30.641Z,18.33
2018-11-12T01:31:04.585Z,20.90
2018-11-12T01:33:34.369Z,20.63
2018-11-12T01:36:02.835Z,18.47
2018-11-12T01:38:31.622Z,15.87
2018-11-12T01:41:00.088Z,16.27
2018-11-12T01:43:28.534Z,14.20
2018-11-12T01:45:57.029Z,15.70
2018-11-12T01:48:25.452Z,16.03
2018-11-12T01:50:53.908Z,16.47
2018-11-12T01:53:22.452Z,19.00
2018-11-12T01:55:50.936Z,22.93
2018-11-12T01:58:19.360Z,22.03
2018-11-12T02:00:47.809Z,21.80
2018-11-12T02:03:16.253Z,22.10
2018-11-12T02:05:44.705Z,26.73
2018-11-12T02:08:13.183Z,23.67
2018-11-12T02:10:41.631Z,22.77
2018-11-12T02:13:10.121Z,22.17
2018-11-12T02:15:38.574Z,27.23
2018-11-12T02:18:07.046Z,23.20
2018-11-12T02:20:35.494Z,25.60
2018-11-12T02:23:03.966Z,24.50
2018-11-12T02:25:32.425Z,22.83
2018-11-12T02:28:00.888Z,24.93
2018-11-12T02:30:48.103Z,24.80
2018-11-12T02:33:17.508Z,26.83
2018-11-12T02:35:45.936Z,30.73
2018-11-12T02:38:14.518Z,28.30
2018-11-12T02:40:42.994Z,27.97
2018-11-12T02:43:11.432Z,28.67
2018-11-12T02:45:39.881Z,31.63
2018-11-12T02:48:08.327Z,27.70
2018-11-12T02:50:36.800Z,29.50
2018-11-12T02:53:05.287Z,29.83
2018-11-12T02:55:33.765Z,30.00
2018-11-12T02:58:02.212Z,28.67
2018-11-12T03:00:30.693Z,27.27
2018-11-12T03:02:59.174Z,29.53
2018-11-12T03:05:27.645Z,31.90
2018-11-12T03:07:56.121Z,27.43
2018-11-12T03:10:25.380Z,31.60
2018-11-12T03:12:53.843Z,34.77
2018-11-12T03:15:22.660Z,30.27
2018-11-12T03:17:51.841Z,29.13
2018-11-12T03:20:21.689Z,33.07
2018-11-12T03:22:50.149Z,32.13
2018-11-12T03:25:19.845Z,30.17
2018-11-12T03:27:48.954Z,32.07
2018-11-12T03:30:18.706Z,31.67
2018-11-12T03:32:47.977Z,35.67
2018-11-12T03:35:16.644Z,33.17
2018-11-12T03:37:46.319Z,36.20
2018-11-12T03:40:16.803Z,33.00
2018-11-12T03:42:45.932Z,34.20
2018-11-12T03:45:15.524Z,33.90
2018-11-12T03:47:43.964Z,34.73
2018-11-12T03:50:15.253Z,37.27
2018-11-12T03:52:43.878Z,32.70
2018-11-12T03:55:13.506Z,39.07
2018-11-12T03:57:42.085Z,29.63
2018-11-12T04:00:14.764Z,32.47
2018-11-12T04:02:43.369Z,35.77
2018-11-12T04:05:11.957Z,38.47
2018-11-12T04:07:41.112Z,37.87
2018-11-12T04:10:11.444Z,34.80
2018-11-12T04:12:39.895Z,40.43
2018-11-12T04:15:10.986Z,36.37
2018-11-12T04:17:39.429Z,35.33
2018-11-12T04:20:09.396Z,32.43
2018-11-12T04:22:38.188Z,34.20
2018-11-12T04:25:07.974Z,35.50
2018-11-12T04:27:36.476Z,33.10
2018-11-12T04:30:07.885Z,33.50
2018-11-12T04:32:36.371Z,32.23
2018-11-12T04:35:04.866Z,35.33
2018-11-12T04:37:33.339Z,33.80
2018-11-12T04:40:01.801Z,34.07
2018-11-12T04:42:30.313Z,32.10
2018-11-12T04:44:58.793Z,36.07
2018-11-12T04:47:27.298Z,31.43
2018-11-12T04:49:56.357Z,32.43
2018-11-12T04:52:25.034Z,33.33
2018-11-12T04:54:53.720Z,35.97
2018-11-12T04:57:22.179Z,32.53
2018-11-12T04:59:50.669Z,34.73
2018-11-12T05:02:19.112Z,34.43
2018-11-12T05:04:47.620Z,32.83
2018-11-12T05:07:16.177Z,33.87
2018-11-12T05:09:44.591Z,33.23
2018-11-12T05:12:13.034Z,32.83
2018-11-12T05:14:41.536Z,41.03
2018-11-12T05:17:09.971Z,38.63
2018-11-12T05:19:38.396Z,37.60
2018-11-12T05:22:06.851Z,41.83
2018-11-12T05:24:35.319Z,40.30
2018-11-12T05:27:03.776Z,32.73
2018-11-12T05:29:32.220Z,39.27
2018-11-12T05:32:00.671Z,37.87
2018-11-12T05:34:29.125Z,38.07
2018-11-12T05:36:57.670Z,38.20
2018-11-12T05:39:26.153Z,35.50
2018-11-12T05:41:54.628Z,38.70
2018-11-12T05:44:23.064Z,38.47
2018-11-12T05:46:51.534Z,39.67
2018-11-12T05:49:19.981Z,41.00
2018-11-12T05:51:48.697Z,36.70
2018-11-12T05:54:17.160Z,35.17
2018-11-12T05:56:45.616Z,40.07
2018-11-12T05:59:14.076Z,40.43
2018-11-12T06:01:42.524Z,43.17
2018-11-12T06:04:10.959Z,38.00
2018-11-12T06:06:39.427Z,37.67
2018-11-12T06:25:53.919Z,45.83
2018-11-12T06:28:22.373Z,46.80
2018-11-12T06:30:50.853Z,48.30
2018-11-12T06:33:19.287Z,44.63
2018-11-12T06:35:47.743Z,41.53
2018-11-12T06:38:16.240Z,44.03
2018-11-12T06:40:44.840Z,46.50
2018-11-12T06:43:13.351Z,44.70
2018-11-12T06:45:41.792Z,48.17
2018-11-12T06:48:10.265Z,47.73
2018-11-12T06:50:38.726Z,48.33
2018-11-12T06:53:07.273Z,48.23
2018-11-12T06:55:35.681Z,38.70
2018-11-12T06:58:04.174Z,49.40
2018-11-12T07:00:34.003Z,44.37
2018-11-12T07:03:02.508Z,39.43
2018-11-12T07:05:31.331Z,62.88
2018-11-12T07:07:59.774Z,55.63
2018-11-12T07:10:29.253Z,46.50
2018-11-12T07:12:58.554Z,43.87
2018-11-12T07:15:28.064Z,44.60
2018-11-12T07:17:56.762Z,42.53
2018-11-12T07:20:26.466Z,36.03
2018-11-12T07:22:55.032Z,41.83
2018-11-12T07:55:36.763Z,39.23
2018-11-12T07:58:05.453Z,47.07
2018-11-12T08:00:34.667Z,45.97
2018-11-12T08:03:07.465Z,41.90
2018-11-12T08:05:36.515Z,39.77
2018-11-12T08:08:05.237Z,39.47
2018-11-12T08:10:33.723Z,37.97
2018-11-12T08:13:02.201Z,34.10
2018-11-12T08:15:30.726Z,31.70
2018-11-12T08:17:59.210Z,36.07
2018-11-12T08:20:27.892Z,34.27
2018-11-12T08:22:56.434Z,29.87
2018-11-12T08:25:24.881Z,31.53
2018-11-12T08:27:53.355Z,32.03
2018-11-12T08:30:23.213Z,29.07
2018-11-12T08:32:53.053Z,29.07
2018-11-12T08:35:21.429Z,28.03
2018-11-12T08:37:50.536Z,24.80
2018-11-12T08:40:20.252Z,30.03
2018-11-12T08:42:48.800Z,26.40
2018-11-12T08:45:17.365Z,27.33
2018-11-12T08:47:47.405Z,30.33
2018-11-12T08:50:17.660Z,26.20
2018-11-12T08:52:47.138Z,25.03
2018-11-12T08:55:17.259Z,23.53
2018-11-12T08:57:49.019Z,29.27
2018-11-12T09:00:18.314Z,20.27
2018-11-12T09:02:46.859Z,25.63
2018-11-12T09:05:16.409Z,22.63
2018-11-12T09:07:46.308Z,25.57
2018-11-12T09:10:17.469Z,17.10
2018-11-12T09:12:46.169Z,18.30
2018-11-12T09:15:14.932Z,15.77
2018-11-12T09:17:44.456Z,18.13
2018-11-12T09:20:15.580Z,17.27
2018-11-12T09:22:44.105Z,17.53
2018-11-12T09:25:16.040Z,18.90
2018-11-12T09:27:44.830Z,16.07
2018-11-12T09:30:15.464Z,15.70
2018-11-12T09:32:44.302Z,17.13
2018-11-12T09:35:15.741Z,15.47
2018-11-12T09:37:45.599Z,17.20
2018-11-12T09:40:17.609Z,15.50
2018-11-12T09:42:46.469Z,14.40
2018-11-12T09:45:14.936Z,16.87
2018-11-12T09:47:43.914Z,14.83
2018-11-12T09:50:41.360Z,17.43
2018-11-12T09:53:09.804Z,15.83
2018-11-12T09:55:38.329Z,16.43
2018-11-12T09:58:07.720Z,13.77
2018-11-12T10:00:36.759Z,18.10
2018-11-12T10:03:06.061Z,13.67
2018-11-12T10:05:35.221Z,13.50
2018-11-12T10:08:09.149Z,13.17
2018-11-12T10:10:47.623Z,13.40
2018-11-12T10:13:21.411Z,11.03
2018-11-12T10:15:50.273Z,11.33
2018-11-12T10:18:16.069Z,11.03
2018-11-12T10:20:44.548Z,7.67
2018-11-12T10:23:12.985Z,6.50
2018-11-12T10:25:41.437Z,8.57
2018-11-12T10:28:09.840Z,6.53
2018-11-12T10:30:38.266Z,5.77
2018-11-12T10:33:06.947Z,6.60
2018-11-12T10:35:35.369Z,9.27
2018-11-12T10:38:04.053Z,7.83
2018-11-12T10:40:32.584Z,7.57
2018-11-12T10:43:00.990Z,7.53
2018-11-12T10:45:29.424Z,7.60
2018-11-12T10:47:57.903Z,7.43
2018-11-12T10:50:26.354Z,10.13
2018-11-12T10:52:54.783Z,7.30
2018-11-12T10:55:24.567Z,5.80
2018-11-12T10:57:53.407Z,8.57
2018-11-12T11:01:27.218Z,6.10
2018-11-12T11:04:01.130Z,7.03
2018-11-12T11:06:29.593Z,7.50
2018-11-12T11:08:58.038Z,5.70
2018-11-12T11:11:26.553Z,8.70
2018-11-12T11:13:55.091Z,5.23
2018-11-12T11:16:23.514Z,9.17
2018-11-12T11:18:51.952Z,7.17
2018-11-12T11:21:20.459Z,8.93
2018-11-12T11:23:48.878Z,7.67
2018-11-12T11:26:17.339Z,9.33
2018-11-12T11:28:45.851Z,8.13
2018-11-12T11:31:14.288Z,7.83
2018-11-12T11:33:42.980Z,7.37
2018-11-12T11:36:11.661Z,6.23
2018-11-12T11:38:40.112Z,7.43
2018-11-12T11:41:08.555Z,9.57
2018-11-12T11:43:37.031Z,8.20
2018-11-12T11:46:05.670Z,7.10
2018-11-12T11:48:34.267Z,9.33
2018-11-12T11:51:02.713Z,7.67
2018-11-12T11:53:31.174Z,9.90
2018-11-12T11:55:59.686Z,9.53
2018-11-12T11:58:28.121Z,9.60
2018-11-12T12:00:56.681Z,9.40
2018-11-12T12:03:25.091Z,11.47
2018-11-12T12:05:53.556Z,8.10
2018-11-12T12:08:22.005Z,13.00
2018-11-12T12:10:50.456Z,11.33
2018-11-12T12:13:18.931Z,8.13
2018-11-12T12:15:47.504Z,9.03
2018-11-12T12:18:16.090Z,9.60
2018-11-12T12:20:44.580Z,9.70
2018-11-12T12:23:13.073Z,7.60
2018-11-12T12:25:41.597Z,6.67
2018-11-12T12:28:10.195Z,8.77
2018-11-12T12:30:38.635Z,7.40
2018-11-12T12:33:07.074Z,8.43
2018-11-12T12:35:35.557Z,7.20
2018-11-12T12:38:04.305Z,6.90
2018-11-12T12:40:32.739Z,7.13
2018-11-12T12:43:01.197Z,9.93
2018-11-12T12:45:29.760Z,6.83
2018-11-12T12:47:58.737Z,5.30
2018-11-12T12:50:27.164Z,5.47
2018-11-12T12:52:55.655Z,5.13
2018-11-12T12:55:24.163Z,5.17
2018-11-12T12:57:52.641Z,5.67
2018-11-12T13:00:22.389Z,5.33
2018-11-12T13:02:50.829Z,6.63
2018-11-12T13:05:19.292Z,6.07
2018-11-12T13:07:47.775Z,8.20
2018-11-12T13:10:17.684Z,6.27
2018-11-12T13:12:48.056Z,7.43
2018-11-12T13:15:17.697Z,5.67
2018-11-12T13:17:47.086Z,7.47
2018-11-12T13:20:16.919Z,5.97
2018-11-12T13:22:46.140Z,5.00
2018-11-12T13:25:14.872Z,5.40
2018-11-12T13:27:43.721Z,4.83
2018-11-12T13:30:15.954Z,5.90
2018-11-12T13:32:45.038Z,4.60
2018-11-12T13:35:14.844Z,6.57
2018-11-12T13:37:43.312Z,5.13
2018-11-12T13:40:14.394Z,8.10
2018-11-12T13:42:44.482Z,3.60
2018-11-12T13:45:12.921Z,4.40
2018-11-12T13:47:41.365Z,5.23
2018-11-12T13:50:13.521Z,3.20
2018-11-12T13:52:41.972Z,4.13
2018-11-12T13:55:11.893Z,5.90
2018-11-12T13:57:40.359Z,3.77
2018-11-12T14:00:10.521Z,4.53
2018-11-12T14:02:39.144Z,4.07
2018-11-12T14:05:09.350Z,4.47
2018-11-12T14:07:37.788Z,3.93
2018-11-12T14:10:07.822Z,8.83
2018-11-12T14:12:36.712Z,3.77
2018-11-12T14:15:06.589Z,3.53
2018-11-12T14:17:35.042Z,9.30
2018-11-12T14:20:03.582Z,3.97
2018-11-12T14:22:32.040Z,4.50
2018-11-12T14:25:00.519Z,4.73
2018-11-12T14:27:29.024Z,4.70
2018-11-12T14:29:57.520Z,5.53
2018-11-12T14:32:26.001Z,4.90
2018-11-12T14:34:54.459Z,7.13
2018-11-12T14:37:22.921Z,5.10
2018-11-12T14:39:51.635Z,7.10
2018-11-12T14:42:20.082Z,5.77
2018-11-12T14:44:48.542Z,6.13
2018-11-12T14:47:17.073Z,7.37
2018-11-12T14:49:45.658Z,7.80
2018-11-12T14:52:14.552Z,6.40
2018-11-12T14:54:43.021Z,6.60
2018-11-12T14:57:11.477Z,8.67
2018-11-12T14:59:40.092Z,6.80
2018-11-12T15:02:08.551Z,7.20
2018-11-12T15:04:37.012Z,6.10
2018-11-12T15:07:06.029Z,7.23
2018-11-12T15:09:34.499Z,6.63
2018-11-12T15:12:02.965Z,7.50
2018-11-12T15:14:31.447Z,7.60
2018-11-12T15:16:59.885Z,9.13
2018-11-12T15:19:28.665Z,8.43
2018-11-12T15:21:57.141Z,7.77
2018-11-12T15:24:25.616Z,8.80
2018-11-12T15:26:54.060Z,8.47
2018-11-12T15:29:22.565Z,9.73
2018-11-12T15:31:50.930Z,8.90
2018-11-12T15:34:19.473Z,11.40
2018-11-12T15:36:48.072Z,10.17
2018-11-12T15:39:16.532Z,10.57
2018-11-12T15:41:45.000Z,9.83
2018-11-12T15:44:13.553Z,11.07
2018-11-12T15:46:42.026Z,12.03
2018-11-12T15:49:10.465Z,11.50
2018-11-12T15:55:00.753Z,12.03
2018-11-12T15:57:29.307Z,10.43
2018-11-12T15:59:57.691Z,10.17
2018-11-12T16:02:34.218Z,13.10
2018-11-12T16:05:02.864Z,11.23
2018-11-12T16:07:31.538Z,9.00
2018-11-12T16:10:00.025Z,12.60
2018-11-12T16:12:28.555Z,10.47
2018-11-12T16:14:57.091Z,10.63
2018-11-12T16:17:25.968Z,12.60
2018-11-12T16:19:54.536Z,11.43
2018-11-12T16:22:23.006Z,10.87
2018-11-12T16:28:20.448Z,10.80
2018-11-12T16:30:48.943Z,10.33
2018-11-12T16:33:17.380Z,14.90
2018-11-12T16:35:45.969Z,13.57
2018-11-12T16:38:14.428Z,11.33
2018-11-12T16:40:42.916Z,10.67
2018-11-12T16:43:12.537Z,11.90
2018-11-12T16:45:40.999Z,13.80
2018-11-12T16:48:09.549Z,13.47
2018-11-12T16:50:38.033Z,15.68
2018-11-12T16:53:07.819Z,15.40
2018-11-12T16:58:57.845Z,15.37
2018-11-12T17:01:26.372Z,15.20
2018-11-12T17:03:55.809Z,18.23
2018-11-12T17:06:24.325Z,16.47
2018-11-12T17:08:52.771Z,17.40
2018-11-12T17:11:23.257Z,113.33
2018-11-12T17:13:53.321Z,20.07
2018-11-12T17:16:21.784Z,18.80
2018-11-12T17:18:50.345Z,17.17
2018-11-12T17:21:19.851Z,19.60
2018-11-12T17:23:49.082Z,19.70
2018-11-12T17:26:17.544Z,18.60
2018-11-12T17:28:46.009Z,19.67
2018-11-12T17:31:14.513Z,18.23
2018-11-12T17:33:42.971Z,16.70
2018-11-12T17:36:11.440Z,19.30
2018-11-12T17:38:39.973Z,17.83
2018-11-12T17:41:08.625Z,17.73
2018-11-12T17:43:37.076Z,19.30
2018-11-12T17:46:18.486Z,19.97
2018-11-12T17:48:54.142Z,25.47
2018-11-12T17:51:22.669Z,23.43
2018-11-12T17:53:51.288Z,17.43
2018-11-12T17:56:23.158Z,17.63
2018-11-12T17:58:51.649Z,19.80
2018-11-12T18:01:20.162Z,19.67
2018-11-12T18:03:48.659Z,23.13
2018-11-12T18:06:25.669Z,19.97
2018-11-12T18:08:54.172Z,24.50
2018-11-12T18:11:22.695Z,24.27
2018-11-12T18:13:51.304Z,21.63
2018-11-12T18:16:19.777Z,22.73
2018-11-12T18:18:48.295Z,22.27
2018-11-12T18:21:18.811Z,22.30
2018-11-12T18:23:47.474Z,23.10
2018-11-12T18:26:16.108Z,21.30
2018-11-12T18:28:44.577Z,20.67
2018-11-12T18:31:13.255Z,23.23
2018-11-12T18:33:41.613Z,22.20
2018-11-12T18:36:10.148Z,20.07
2018-11-12T18:38:38.651Z,23.40
2018-11-12T18:41:07.265Z,20.37
2018-11-12T18:56:41.814Z,19.37
2018-11-12T18:59:10.308Z,17.87
2018-11-12T19:01:42.529Z,17.07
2018-11-12T19:04:11.068Z,17.10
2018-11-12T19:06:39.578Z,20.30
2018-11-12T19:09:09.381Z,18.33
2018-11-12T19:11:46.628Z,19.47
2018-11-12T19:14:16.808Z,21.00
2018-11-12T19:16:48.853Z,19.00
2018-11-12T19:19:17.313Z,18.57
2018-11-12T19:21:45.876Z,21.67
2018-11-12T19:24:14.357Z,23.73
2018-11-12T19:26:42.914Z,20.43
2018-11-12T19:29:11.577Z,23.80
2018-11-12T19:31:40.032Z,21.83
2018-11-12T19:34:09.936Z,16.83
2018-11-12T19:36:38.482Z,20.37
2018-11-12T19:39:14.789Z,18.30
2018-11-12T19:41:43.288Z,20.13
2018-11-12T19:44:11.889Z,18.60
2018-11-12T19:46:40.382Z,19.27
2018-11-12T19:49:08.898Z,21.57
2018-11-12T19:51:37.472Z,16.87
2018-11-12T19:54:06.359Z,17.87
2018-11-12T19:56:34.995Z,16.37
2018-11-12T19:59:03.568Z,15.10
2018-11-12T20:01:32.099Z,20.00
2018-11-12T20:04:02.176Z,16.97
2018-11-12T20:06:30.650Z,15.37
2018-11-12T20:08:59.121Z,14.90
2018-11-12T20:11:27.653Z,15.43
2018-11-12T20:13:56.358Z,15.97
2018-11-12T20:16:24.928Z,16.87
2018-11-12T20:18:53.429Z,13.40
2018-11-12T20:21:21.969Z,20.30
2018-11-12T20:23:50.694Z,15.10
2018-11-12T20:26:19.221Z,15.33
2018-11-12T20:28:47.693Z,15.93
2018-11-12T20:31:16.779Z,13.60
2018-11-12T20:33:45.250Z,13.93
2018-11-12T20:36:14.114Z,15.00
2018-11-12T20:38:42.644Z,13.30
2018-11-12T20:41:11.074Z,17.43
2018-11-12T20:43:39.531Z,23.50
2018-11-12T20:46:08.049Z,13.87
2018-11-12T20:48:36.536Z,13.13
2018-11-12T20:51:05.621Z,16.13
2018-11-12T20:53:34.101Z,17.00
2018-11-12T20:56:02.599Z,14.27
2018-11-12T20:58:31.994Z,13.03
2018-11-12T21:01:00.494Z,16.03
2018-11-12T21:03:29.001Z,16.20
2018-11-12T21:05:57.522Z,18.03
2018-11-12T21:08:26.041Z,16.87
2018-11-12T21:10:54.508Z,18.13
2018-11-12T21:13:22.955Z,18.73
2018-11-12T21:15:51.435Z,17.70
2018-11-12T21:18:19.941Z,17.43
2018-11-12T21:20:48.405Z,14.73
2018-11-12T21:23:16.929Z,18.57
2018-11-12T21:25:45.391Z,13.60
2018-11-12T21:28:13.882Z,15.27
2018-11-12T21:30:42.376Z,14.40
2018-11-12T21:33:10.834Z,17.17
2018-11-12T21:35:39.544Z,17.50
2018-11-12T21:38:08.100Z,15.97
2018-11-12T21:40:40.478Z,18.63
2018-11-12T21:43:08.969Z,16.57
2018-11-12T21:45:37.403Z,12.87
2018-11-12T21:48:05.929Z,15.87
2018-11-12T21:50:34.420Z,15.00
2018-11-12T21:53:02.876Z,16.10
2018-11-12T21:55:31.560Z,15.73
2018-11-12T21:58:00.086Z,16.13
2018-11-12T22:00:32.507Z,14.43
2018-11-12T22:03:02.252Z,16.07
2018-11-12T22:05:31.810Z,16.23
2018-11-12T22:08:00.647Z,17.60
2018-11-12T22:10:29.136Z,17.67
2018-11-12T22:12:57.686Z,13.33
2018-11-12T22:15:26.172Z,15.17
2018-11-12T22:17:54.681Z,14.30
2018-11-12T22:20:24.675Z,13.57
2018-11-12T22:22:53.163Z,14.13
2018-11-12T22:25:22.637Z,11.73
2018-11-12T22:27:51.848Z,13.93
2018-11-12T22:30:24.722Z,11.20
2018-11-12T22:32:54.009Z,15.10
2018-11-12T22:35:22.682Z,12.37
2018-11-12T22:37:51.412Z,12.47
2018-11-12T22:40:20.581Z,13.70
2018-11-12T22:42:49.968Z,14.87
2018-11-12T22:45:19.876Z,12.57
2018-11-12T22:47:48.877Z,11.53
2018-11-12T22:50:17.334Z,10.77
2018-11-12T22:52:46.133Z,12.33
2018-11-12T22:55:15.861Z,13.67
2018-11-12T22:57:44.322Z,10.93
2018-11-12T23:00:19.419Z,13.30
2018-11-12T23:02:48.563Z,13.27
2018-11-12T23:05:17.533Z,12.43
2018-11-12T23:07:46.846Z,13.10
2018-11-12T23:10:15.937Z,13.50
2018-11-12T23:12:44.405Z,11.93
2018-11-12T23:15:13.295Z,11.90
2018-11-12T23:17:41.866Z,12.33
2018-11-12T23:20:13.505Z,18.47
2018-11-12T23:22:42.862Z,13.30
2018-11-12T23:25:11.785Z,11.67
2018-11-12T23:27:41.277Z,17.20
2018-11-12T23:30:11.512Z,14.53
2018-11-12T23:32:40.410Z,11.33
2018-11-12T23:35:12.025Z,12.33
2018-11-12T23:37:41.124Z,13.67
2018-11-12T23:40:10.317Z,17.33
2018-11-12T23:42:38.883Z,15.00
2018-11-12T23:45:07.953Z,15.43
2018-11-12T23:47:37.113Z,13.97
2018-11-12T23:50:08.106Z,13.33
2018-11-12T23:52:36.590Z,17.23
2018-11-12T23:55:05.386Z,18.90
2018-11-12T23:57:33.870Z,14.27
